Time;durP1;ratioP1;P1;durP2;ratioP2;P2;SDS_P1;SDS_P2;PMS_P1;PMS_P2;Temp;Humidity;BMP_temperature;BMP_pressure;BME280_temperature;BME280_humidity;BME280_pressure;Samples;Min_cycle;Max_cycle;Signal;HPM_P1;HPM_P2
2022/08/05 00:00:08;;;;;;;0.90;0.90;;;24.90;92.50;;;;;;5092583;28;20687;-64
2022/08/05 00:03:02;;;;;;;0.40;0.40;;;24.80;93.00;;;;;;5093178;28;20196;-65
2022/08/05 00:05:53;;;;;;;0.40;0.40;;;24.70;93.50;;;;;;5092448;28;20200;-64
2022/08/05 00:09:01;;;;;;;0.40;0.40;;;24.70;93.80;;;;;;5091720;28;20668;-64
2022/08/05 00:11:50;;;;;;;0.60;0.60;;;24.60;94.60;;;;;;5093224;28;20199;-64
2022/08/05 00:14:48;;;;;;;0.40;0.40;;;24.50;95.20;;;;;;5091950;28;20224;-65
2022/08/05 00:17:38;;;;;;;0.40;0.40;;;24.50;95.80;;;;;;5093856;28;20204;-64
2022/08/05 00:20:28;;;;;;;0.40;0.40;;;24.40;96.40;;;;;;5092543;28;20281;-68
2022/08/05 00:23:16;;;;;;;0.50;0.50;;;24.30;97.50;;;;;;5092604;28;20265;-63
2022/08/05 00:26:24;;;;;;;0.52;0.52;;;24.30;97.80;;;;;;5092216;28;20257;-65
2022/08/05 00:29:13;;;;;;;0.70;0.70;;;24.20;98.60;;;;;;5090672;28;20221;-65
2022/08/05 00:32:03;;;;;;;0.40;0.40;;;24.20;99.70;;;;;;5097907;28;20196;-64
2022/08/05 00:35:02;;;;;;;0.40;0.40;;;24.10;99.90;;;;;;5098330;28;20258;-64
2022/08/05 00:37:54;;;;;;;0.50;0.50;;;24.00;99.90;;;;;;5058885;28;20194;-64
2022/08/05 00:40:48;;;;;;;0.50;0.50;;;23.90;99.90;;;;;;5058424;28;20224;-64
2022/08/05 00:43:40;;;;;;;3.50;2.53;;;23.90;99.90;;;;;;5057943;28;20217;-65
2022/08/05 00:46:34;;;;;;;0.40;0.40;;;23.80;99.90;;;;;;5057849;28;20670;-64
2022/08/05 00:49:32;;;;;;;0.80;0.80;;;23.70;99.90;;;;;;5058230;28;20212;-64
2022/08/05 00:52:38;;;;;;;0.40;0.40;;;23.60;99.90;;;;;;5057981;28;20201;-65
2022/08/05 00:55:26;;;;;;;1.40;0.50;;;23.60;99.90;;;;;;5055062;28;20314;-64
2022/08/05 00:58:30;;;;;;;0.40;0.40;;;23.50;99.90;;;;;;5057631;28;20220;-67
2022/08/05 01:01:18;;;;;;;0.43;0.43;;;23.40;99.90;;;;;;5057015;28;20233;-65
2022/08/05 01:04:26;;;;;;;0.50;0.50;;;23.30;99.90;;;;;;5060574;28;20713;-64
2022/08/05 01:07:18;;;;;;;0.40;0.40;;;23.30;99.90;;;;;;5058142;28;20697;-65
2022/08/05 01:10:10;;;;;;;13.65;3.25;;;23.20;99.90;;;;;;5058152;28;20201;-68
2022/08/05 01:13:06;;;;;;;0.40;0.40;;;23.10;99.90;;;;;;5056678;28;20204;-65
2022/08/05 01:16:10;;;;;;;1.80;1.70;;;23.00;99.90;;;;;;5054955;28;20250;-65
2022/08/05 01:19:11;;;;;;;1.20;0.85;;;23.00;99.90;;;;;;5054603;28;20360;-66
2022/08/05 01:22:24;;;;;;;0.40;0.40;;;22.90;99.90;;;;;;5054615;28;20197;-66
2022/08/05 01:25:37;;;;;;;0.40;0.40;;;22.90;99.90;;;;;;5054379;28;20605;-67
2022/08/05 01:28:35;;;;;;;0.93;0.93;;;22.80;99.90;;;;;;5055192;28;20205;-67
2022/08/05 01:31:32;;;;;;;0.50;0.50;;;22.80;99.90;;;;;;5054556;28;20209;-65
2022/08/05 01:34:37;;;;;;;1.42;1.38;;;22.70;99.90;;;;;;5054266;28;20701;-67
2022/08/05 01:37:39;;;;;;;0.60;0.60;;;22.70;99.90;;;;;;5088409;28;20200;-69
2022/08/05 01:40:32;;;;;;;0.60;0.60;;;22.70;99.90;;;;;;5094717;28;20298;-68
2022/08/05 01:43:22;;;;;;;0.40;0.40;;;22.70;99.90;;;;;;5094119;28;20203;-68
2022/08/05 01:46:12;;;;;;;2.97;1.65;;;22.70;99.90;;;;;;5095391;28;20207;-67
2022/08/05 01:49:23;;;;;;;0.50;0.50;;;22.70;99.90;;;;;;5094320;28;20252;-66
2022/08/05 01:52:13;;;;;;;0.40;0.40;;;22.70;99.90;;;;;;5094247;28;20219;-68
2022/08/05 01:55:09;;;;;;;0.40;0.40;;;22.70;99.90;;;;;;5094272;28;20216;-66
2022/08/05 01:58:19;;;;;;;2.15;2.05;;;22.70;99.90;;;;;;5086409;28;20669;-68
2022/08/05 02:01:31;;;;;;;0.68;0.60;;;22.70;99.90;;;;;;5073858;28;20289;-65
2022/08/05 02:04:29;;;;;;;1.25;1.15;;;22.70;99.90;;;;;;5074647;28;20239;-66
2022/08/05 02:07:18;;;;;;;0.40;0.40;;;22.60;99.90;;;;;;5073551;28;20205;-67
2022/08/05 02:10:11;;;;;;;0.40;0.40;;;22.60;99.90;;;;;;5073054;28;20200;-66
2022/08/05 02:13:12;;;;;;;0.40;0.40;;;22.60;99.90;;;;;;5072741;28;20597;-68
2022/08/05 02:16:13;;;;;;;0.82;0.82;;;22.50;99.90;;;;;;5073388;28;20197;-66
2022/08/05 02:19:11;;;;;;;0.98;0.98;;;22.50;99.90;;;;;;5073126;28;20696;-66
2022/08/05 02:22:05;;;;;;;2.28;1.65;;;22.40;99.90;;;;;;5072816;28;20290;-66
2022/08/05 02:24:58;;;;;;;0.40;0.40;;;22.40;99.90;;;;;;5072560;28;20216;-66
2022/08/05 02:27:48;;;;;;;0.40;0.40;;;22.40;99.90;;;;;;5073579;28;20193;-65
2022/08/05 02:30:56;;;;;;;0.50;0.50;;;22.40;99.90;;;;;;5072604;28;20228;-64
2022/08/05 02:33:50;;;;;;;0.45;0.45;;;22.40;99.90;;;;;;5073005;28;20346;-67
2022/08/05 02:36:50;;;;;;;0.40;0.40;;;22.40;99.90;;;;;;5083314;28;20222;-64
2022/08/05 02:39:41;;;;;;;0.40;0.40;;;22.40;99.90;;;;;;5093391;28;20222;-66
2022/08/05 02:42:36;;;;;;;0.50;0.50;;;22.50;99.90;;;;;;5092655;28;20212;-64
2022/08/05 02:45:26;;;;;;;0.40;0.40;;;22.50;99.90;;;;;;5092583;28;20239;-68
2022/08/05 02:48:16;;;;;;;0.40;0.40;;;22.50;99.90;;;;;;5093539;28;20199;-67
2022/08/05 02:51:06;;;;;;;0.40;0.40;;;22.40;99.90;;;;;;5093421;28;20578;-65
2022/08/05 02:53:57;;;;;;;0.40;0.40;;;22.50;99.90;;;;;;5092274;28;20723;-65
2022/08/05 02:56:52;;;;;;;0.40;0.40;;;22.40;99.90;;;;;;5092801;28;20196;-65
2022/08/05 02:59:42;;;;;;;0.40;0.40;;;22.50;99.90;;;;;;5091908;28;20723;-65
2022/08/05 03:02:40;;;;;;;0.40;0.40;;;22.40;99.90;;;;;;5092299;28;20200;-64
2022/08/05 03:05:29;;;;;;;0.40;0.40;;;22.40;99.90;;;;;;5092832;28;20357;-66
2022/08/05 03:08:39;;;;;;;0.40;0.40;;;22.40;99.90;;;;;;5093351;28;20253;-66
2022/08/05 03:11:31;;;;;;;0.40;0.40;;;22.40;99.90;;;;;;5093517;28;20223;-65
2022/08/05 03:14:39;;;;;;;0.40;0.40;;;22.40;99.90;;;;;;5091811;28;20254;-64
2022/08/05 03:17:33;;;;;;;0.40;0.40;;;22.40;99.90;;;;;;5092263;28;20200;-66
2022/08/05 03:20:28;;;;;;;0.40;0.40;;;22.40;99.90;;;;;;5092211;28;20220;-65
2022/08/05 03:23:17;;;;;;;0.40;0.40;;;22.50;99.90;;;;;;5092434;28;20196;-65
2022/08/05 03:26:11;;;;;;;0.40;0.40;;;22.50;99.90;;;;;;5093026;28;20260;-65
2022/08/05 03:29:20;;;;;;;0.50;0.50;;;22.40;99.90;;;;;;5092375;28;20357;-64
2022/08/05 03:32:09;;;;;;;0.40;0.40;;;22.40;99.90;;;;;;5092204;28;20219;-64
2022/08/05 03:34:58;;;;;;;0.40;0.40;;;22.40;99.90;;;;;;5091728;28;20316;-66
2022/08/05 03:37:47;;;;;;;0.40;0.40;;;22.40;99.90;;;;;;5072534;28;20212;-64
2022/08/05 03:40:40;;;;;;;0.50;0.50;;;22.40;99.90;;;;;;5071072;28;20291;-64
2022/08/05 03:43:34;;;;;;;0.40;0.40;;;22.40;99.90;;;;;;5071642;28;20598;-64
2022/08/05 03:46:43;;;;;;;0.40;0.40;;;22.40;99.90;;;;;;5072356;28;20372;-66
2022/08/05 03:49:33;;;;;;;0.40;0.40;;;22.50;99.90;;;;;;5071469;28;20208;-65
2022/08/05 03:52:48;;;;;;;0.40;0.40;;;22.50;99.90;;;;;;5072352;28;20200;-64
2022/08/05 03:56:03;;;;;;;0.40;0.40;;;22.50;99.90;;;;;;5071101;28;20200;-65
2022/08/05 03:59:06;;;;;;;0.40;0.40;;;22.60;99.90;;;;;;5070608;28;20217;-65
2022/08/05 04:01:57;;;;;;;0.40;0.40;;;22.60;99.90;;;;;;5072035;28;20262;-65
2022/08/05 04:04:46;;;;;;;0.40;0.40;;;22.60;99.90;;;;;;5072232;28;20217;-65
2022/08/05 04:07:36;;;;;;;0.40;0.40;;;22.70;99.90;;;;;;5071848;28;20286;-66
2022/08/05 04:10:45;;;;;;;1.20;1.20;;;22.70;99.90;;;;;;5072011;28;20677;-64
2022/08/05 04:13:39;;;;;;;0.40;0.40;;;22.80;99.90;;;;;;5071781;28;20239;-64
2022/08/05 04:16:39;;;;;;;0.40;0.40;;;22.90;99.90;;;;;;5097413;22;20243;-69
2022/08/05 04:19:29;;;;;;;0.40;0.40;;;22.90;99.90;;;;;;5071734;28;20200;-69
2022/08/05 04:22:18;;;;;;;0.40;0.40;;;23.00;99.90;;;;;;5071470;28;20197;-69
2022/08/05 04:25:09;;;;;;;0.40;0.40;;;23.20;99.90;;;;;;5071652;28;20304;-69
2022/08/05 04:27:57;;;;;;;0.40;0.40;;;23.20;99.90;;;;;;5072634;28;20208;-69
2022/08/05 04:30:52;;;;;;;0.40;0.40;;;23.40;99.90;;;;;;5071903;28;20240;-69
2022/08/05 04:33:40;;;;;;;0.40;0.40;;;23.50;99.90;;;;;;5071464;28;20196;-69
2022/08/05 04:36:49;;;;;;;0.40;0.40;;;23.60;99.90;;;;;;5071676;28;20719;-69
2022/08/05 04:39:37;;;;;;;0.40;0.40;;;23.70;99.90;;;;;;5075773;28;20695;-69
2022/08/05 04:42:27;;;;;;;0.40;0.40;;;23.80;99.90;;;;;;5075111;28;20233;-69
2022/08/05 04:45:15;;;;;;;0.40;0.40;;;23.80;99.90;;;;;;5075595;28;20282;-69
2022/08/05 04:48:18;;;;;;;0.40;0.40;;;23.80;99.90;;;;;;5075309;28;20200;-69
2022/08/05 04:51:16;;;;;;;0.40;0.40;;;23.80;99.90;;;;;;5076127;28;20197;-69
2022/08/05 04:54:06;;;;;;;0.40;0.40;;;23.70;99.90;;;;;;5075610;28;20705;-69
2022/08/05 04:56:56;;;;;;;1.08;0.80;;;23.70;99.90;;;;;;5074882;28;20216;-69
2022/08/05 04:59:46;;;;;;;2.35;1.25;;;24.70;99.90;;;;;;5075597;28;20208;-69
2022/08/05 05:02:35;;;;;;;0.50;0.50;;;23.60;99.90;;;;;;5074946;28;20196;-69
2022/08/05 05:05:30;;;;;;;0.75;0.75;;;23.50;99.90;;;;;;5076212;28;20227;-69
2022/08/05 05:08:18;;;;;;;7.70;1.80;;;23.50;99.90;;;;;;5075424;28;20744;-69
2022/08/05 05:11:18;;;;;;;2.75;1.75;;;23.40;99.90;;;;;;5075831;28;20197;-69
2022/08/05 05:14:07;;;;;;;2.47;2.35;;;23.30;99.90;;;;;;5075979;28;20207;-71
2022/08/05 05:17:03;;;;;;;0.50;0.50;;;23.30;99.90;;;;;;5076175;28;20284;-69
2022/08/05 05:19:56;;;;;;;0.50;0.50;;;23.40;99.90;;;;;;5074628;28;20200;-70
2022/08/05 05:22:44;;;;;;;1.23;1.13;;;23.30;99.90;;;;;;5075601;28;20204;-71
2022/08/05 05:25:32;;;;;;;0.40;0.40;;;23.30;99.90;;;;;;5074095;28;20223;-69
2022/08/05 05:28:29;;;;;;;0.52;0.52;;;23.40;99.90;;;;;;5076301;28;20337;-71
2022/08/05 05:31:17;;;;;;;0.60;0.60;;;23.40;99.90;;;;;;5074250;28;20297;-70
2022/08/05 05:34:07;;;;;;;0.73;0.73;;;23.30;99.90;;;;;;5075176;28;20211;-68
2022/08/05 05:36:55;;;;;;;1.55;1.45;;;23.50;99.90;;;;;;5075736;28;20201;-68
2022/08/05 05:39:43;;;;;;;0.73;0.73;;;23.50;99.90;;;;;;5074849;28;20211;-70
2022/08/05 05:42:32;;;;;;;0.95;0.95;;;23.40;99.90;;;;;;5075426;28;20617;-70
2022/08/05 05:45:23;;;;;;;1.05;1.05;;;23.60;99.90;;;;;;5075921;28;20220;-70
2022/08/05 05:48:11;;;;;;;8.75;2.38;;;23.70;99.90;;;;;;5074762;28;20216;-71
2022/08/05 05:51:03;;;;;;;0.85;0.70;;;23.60;99.90;;;;;;5075208;28;20208;-70
2022/08/05 05:54:02;;;;;;;0.50;0.50;;;23.50;99.90;;;;;;5075370;28;20193;-68
2022/08/05 05:56:50;;;;;;;2.05;1.85;;;23.40;99.90;;;;;;5075507;28;20228;-70
2022/08/05 05:59:39;;;;;;;1.40;1.35;;;23.40;99.90;;;;;;5074347;28;20189;-70
2022/08/05 06:02:31;;;;;;;0.50;0.50;;;23.50;99.90;;;;;;5074898;28;20307;-69
2022/08/05 06:05:24;;;;;;;0.50;0.50;;;23.60;99.90;;;;;;5074101;28;20704;-68
2022/08/05 06:08:13;;;;;;;2.13;2.03;;;23.70;99.90;;;;;;5074739;28;20742;-70
2022/08/05 06:11:18;;;;;;;2.53;2.28;;;23.60;99.90;;;;;;5074612;28;20337;-71
2022/08/05 06:14:07;;;;;;;2.88;1.30;;;23.40;99.90;;;;;;5073784;28;20274;-69
2022/08/05 06:16:55;;;;;;;1.70;1.40;;;23.30;99.90;;;;;;5074810;28;20231;-70
2022/08/05 06:19:46;;;;;;;0.82;0.82;;;23.40;99.90;;;;;;5074096;28;20200;-71
2022/08/05 06:22:46;;;;;;;2.10;1.90;;;23.50;99.90;;;;;;5074473;28;20216;-69
2022/08/05 06:25:34;;;;;;;1.63;1.35;;;;;;;;;;5074237;28;20291;-71
2022/08/05 06:28:42;;;;;;;2.25;2.08;;;23.60;99.90;;;;;;5072882;28;20623;-69
2022/08/05 06:31:33;;;;;;;0.70;0.70;;;23.70;99.90;;;;;;5072406;28;20203;-69
2022/08/05 06:34:21;;;;;;;2.58;2.38;;;23.80;99.90;;;;;;5073981;28;20200;-69
2022/08/05 06:37:17;;;;;;;1.20;1.10;;;23.90;99.90;;;;;;5070172;28;20208;-68
2022/08/05 06:40:25;;;;;;;0.95;0.95;;;23.90;99.90;;;;;;5092953;28;20333;-69
2022/08/05 06:43:19;;;;;;;1.92;1.83;;;23.70;99.90;;;;;;5092981;28;20200;-68
2022/08/05 06:46:27;;;;;;;2.15;0.80;;;23.60;99.90;;;;;;5093002;28;20361;-68
2022/08/05 06:49:17;;;;;;;0.60;0.60;;;23.50;99.90;;;;;;5093523;28;20203;-68
2022/08/05 06:52:08;;;;;;;0.55;0.55;;;23.60;99.90;;;;;;5092737;28;20625;-69
2022/08/05 06:55:17;;;;;;;0.77;0.75;;;23.50;99.90;;;;;;5092793;28;20276;-68
2022/08/05 06:58:05;;;;;;;1.85;1.75;;;23.60;99.90;;;;;;5092891;28;20634;-70
2022/08/05 07:01:13;;;;;;;1.13;1.02;;;23.40;99.90;;;;;;5091184;28;20200;-68
2022/08/05 07:04:08;;;;;;;0.40;0.40;;;23.20;99.90;;;;;;5092451;28;20199;-70
2022/08/05 07:06:56;;;;;;;1.20;1.10;;;23.30;99.90;;;;;;5092464;28;20207;-68
2022/08/05 07:09:45;;;;;;;0.95;0.95;;;23.20;99.90;;;;;;5092589;28;20223;-69
2022/08/05 07:19:29;;;;;;;0.50;0.50;;;23.10;99.90;;;;;;5029342;28;20202;-69
2022/08/05 07:22:38;;;;;;;0.52;0.52;;;23.10;99.90;;;;;;5030524;28;20225;-68
2022/08/05 07:25:28;;;;;;;1.02;0.93;;;23.00;99.90;;;;;;5091997;28;20224;-68
2022/08/05 07:28:38;;;;;;;0.40;0.40;;;23.00;99.90;;;;;;5093221;28;20287;-67
2022/08/05 07:31:26;;;;;;;0.40;0.40;;;22.80;99.90;;;;;;5092229;28;20196;-70
2022/08/05 07:34:34;;;;;;;0.40;0.40;;;22.70;99.90;;;;;;5092665;28;20196;-70
2022/08/05 07:37:29;;;;;;;0.40;0.40;;;22.60;99.90;;;;;;5075050;28;20201;-70
2022/08/05 07:40:24;;;;;;;0.40;0.40;;;22.70;99.90;;;;;;5071608;28;20606;-69
2022/08/05 07:43:20;;;;;;;0.40;0.40;;;22.70;99.90;;;;;;5072403;28;20585;-70
2022/08/05 07:46:09;;;;;;;0.40;0.40;;;22.80;99.90;;;;;;5072622;28;20223;-70
2022/08/05 07:49:13;;;;;;;0.40;0.40;;;22.70;99.90;;;;;;5072015;28;20206;-70
2022/08/05 07:52:01;;;;;;;0.75;0.75;;;22.60;99.90;;;;;;5072474;28;20197;-69
2022/08/05 07:54:50;;;;;;;0.40;0.40;;;22.50;99.90;;;;;;5071784;28;20312;-71
2022/08/05 07:57:39;;;;;;;0.40;0.40;;;22.50;99.90;;;;;;5071422;28;20196;-69
2022/08/05 08:00:48;;;;;;;0.40;0.40;;;22.70;99.90;;;;;;5071353;28;20201;-69
2022/08/05 08:03:38;;;;;;;0.40;0.40;;;23.00;99.90;;;;;;5071893;28;20620;-69
2022/08/05 08:06:31;;;;;;;0.40;0.40;;;23.30;99.90;;;;;;5071688;28;20212;-69
2022/08/05 08:09:19;;;;;;;0.40;0.40;;;23.50;99.90;;;;;;5070895;28;20193;-69
2022/08/05 08:12:08;;;;;;;0.40;0.40;;;23.70;99.90;;;;;;5071414;28;20239;-69
2022/08/05 08:15:16;;;;;;;0.40;0.40;;;23.70;99.90;;;;;;5070526;28;20309;-68
2022/08/05 08:18:15;;;;;;;0.40;0.40;;;23.70;99.90;;;;;;5071381;28;20200;-71
2022/08/05 08:21:09;;;;;;;0.40;0.40;;;23.90;99.90;;;;;;5071438;28;20201;-70
2022/08/05 08:24:07;;;;;;;0.40;0.40;;;24.10;99.90;;;;;;5071175;28;20192;-69
2022/08/05 08:27:01;;;;;;;0.40;0.40;;;24.30;99.90;;;;;;5071337;28;20200;-69
2022/08/05 08:29:54;;;;;;;1.75;0.50;;;24.40;99.90;;;;;;5071533;28;20274;-69
2022/08/05 08:32:53;;;;;;;0.98;0.98;;;24.10;99.90;;;;;;5071666;28;20307;-70
2022/08/05 08:35:41;;;;;;;0.60;0.60;;;23.90;99.90;;;;;;5071323;28;20308;-70
2022/08/05 08:38:53;;;;;;;0.60;0.60;;;23.80;99.90;;;;;;5070370;28;20236;-70
2022/08/05 08:41:42;;;;;;;0.80;0.80;;;23.80;99.90;;;;;;5072454;28;20592;-69
2022/08/05 08:44:46;;;;;;;0.73;0.50;;;23.60;99.90;;;;;;5069881;28;20319;-70
2022/08/05 08:47:56;;;;;;;0.40;0.40;;;23.40;99.90;;;;;;5072035;28;20326;-69
2022/08/05 08:51:04;;;;;;;0.50;0.50;;;23.40;99.90;;;;;;5070348;28;20677;-69
2022/08/05 08:54:14;;;;;;;0.40;0.40;;;23.50;99.90;;;;;;5072669;28;20262;-70
2022/08/05 08:57:02;;;;;;;0.47;0.47;;;23.50;99.90;;;;;;5072130;28;20246;-69
2022/08/05 08:59:51;;;;;;;0.40;0.40;;;23.60;99.90;;;;;;5071802;28;20685;-70
2022/08/05 09:02:44;;;;;;;0.40;0.40;;;23.50;99.90;;;;;;5071218;28;20224;-69
2022/08/05 09:05:34;;;;;;;1.80;0.73;;;23.80;99.90;;;;;;5071204;28;20728;-69
2022/08/05 09:08:26;;;;;;;0.93;0.93;;;23.90;99.90;;;;;;5071245;28;20583;-69
2022/08/05 09:11:18;;;;;;;0.40;0.40;;;24.20;99.90;;;;;;5070051;28;20208;-70
2022/08/05 09:14:26;;;;;;;0.50;0.50;;;24.30;99.90;;;;;;5071901;28;20286;-69
2022/08/05 09:17:34;;;;;;;0.40;0.40;;;24.60;99.90;;;;;;5070241;28;20333;-70
2022/08/05 09:20:29;;;;;;;0.40;0.40;;;24.50;99.90;;;;;;5070920;28;20201;-70
2022/08/05 09:23:25;;;;;;;0.40;0.40;;;24.30;99.90;;;;;;5070933;28;20224;-71
2022/08/05 09:26:25;;;;;;;0.40;0.40;;;24.20;99.90;;;;;;5074472;28;20216;-71
2022/08/05 09:29:19;;;;;;;0.40;0.40;;;24.20;99.90;;;;;;5074599;28;20204;-72
2022/08/05 09:32:18;;;;;;;0.40;0.40;;;24.30;99.90;;;;;;5074243;28;20673;-69
2022/08/05 09:35:26;;;;;;;0.40;0.40;;;24.30;99.90;;;;;;5073940;28;20260;-69
2022/08/05 09:38:18;;;;;;;0.40;0.40;;;24.30;99.90;;;;;;5075054;28;20211;-69
2022/08/05 09:41:16;;;;;;;0.40;0.40;;;24.30;99.90;;;;;;5074226;28;20282;-69
2022/08/05 09:44:07;;;;;;;0.40;0.40;;;24.30;99.90;;;;;;5074915;28;20220;-69
2022/08/05 09:47:07;;;;;;;0.40;0.40;;;24.30;99.90;;;;;;5073656;28;20204;-70
2022/08/05 09:50:02;;;;;;;0.40;0.40;;;24.30;99.90;;;;;;5081149;28;20211;-69
2022/08/05 09:52:57;;;;;;;0.40;0.40;;;24.30;99.90;;;;;;5093487;28;20219;-70
2022/08/05 09:55:45;;;;;;;0.40;0.40;;;24.20;99.90;;;;;;5094389;28;20215;-69
2022/08/05 09:58:56;;;;;;;0.40;0.40;;;24.20;99.90;;;;;;5094110;28;20768;-69
2022/08/05 10:01:46;;;;;;;0.40;0.40;;;24.40;99.90;;;;;;5095536;28;20207;-70
2022/08/05 10:04:47;;;;;;;0.65;0.65;;;24.80;99.90;;;;;;5093917;28;20276;-69
2022/08/05 10:07:51;;;;;;;0.40;0.40;;;24.90;99.90;;;;;;5094234;28;20200;-69
2022/08/05 10:10:59;;;;;;;0.50;0.50;;;24.80;99.90;;;;;;5081352;28;20287;-69
2022/08/05 10:13:47;;;;;;;0.40;0.40;;;24.90;99.90;;;;;;5073369;28;20230;-69
2022/08/05 10:16:36;;;;;;;0.50;0.50;;;25.00;99.90;;;;;;5042064;22;1288031;-64
2022/08/05 10:19:42;;;;;;;0.40;0.40;;;25.20;99.90;;;;;;5074242;28;20242;-64
2022/08/05 10:22:50;;;;;;;0.40;0.40;;;25.20;99.90;;;;;;5073866;28;20338;-63
2022/08/05 10:25:39;;;;;;;0.40;0.40;;;25.50;99.90;;;;;;5074812;28;20219;-64
2022/08/05 10:28:30;;;;;;;0.40;0.40;;;25.80;99.90;;;;;;5074748;28;20204;-64
2022/08/05 10:31:18;;;;;;;0.40;0.40;;;25.90;99.90;;;;;;5074705;28;20212;-64
2022/08/05 10:34:26;;;;;;;0.40;0.40;;;26.10;99.90;;;;;;5073632;28;20277;-63
2022/08/05 10:37:20;;;;;;;0.77;0.77;;;26.00;99.90;;;;;;5090645;28;20207;-63
2022/08/05 10:40:19;;;;;;;0.40;0.40;;;25.70;99.90;;;;;;5094083;28;20199;-63
2022/08/05 10:43:24;;;;;;;0.40;0.40;;;25.40;99.90;;;;;;5093992;28;20636;-63
2022/08/05 10:46:23;;;;;;;0.40;0.40;;;25.20;99.90;;;;;;5094503;28;20224;-64
2022/08/05 10:49:11;;;;;;;0.40;0.40;;;25.20;99.90;;;;;;5095088;28;20572;-64
2022/08/05 10:52:04;;;;;;;0.40;0.40;;;25.20;99.90;;;;;;5094988;28;20212;-64
2022/08/05 10:55:06;;;;;;;0.40;0.40;;;25.30;99.90;;;;;;5074910;28;20189;-64
2022/08/05 10:58:08;;;;;;;0.50;0.50;;;25.30;99.90;;;;;;5073764;28;20200;-63
2022/08/05 11:00:58;;;;;;;0.75;0.60;;;25.50;99.90;;;;;;5073913;28;20287;-63
2022/08/05 11:04:10;;;;;;;0.50;0.50;;;25.70;99.90;;;;;;5074249;28;20217;-64
2022/08/05 11:07:07;;;;;;;0.50;0.50;;;25.80;99.90;;;;;;5073801;28;20269;-63
2022/08/05 11:09:56;;;;;;;0.50;0.50;;;25.70;99.90;;;;;;5073688;28;20211;-64
2022/08/05 11:12:59;;;;;;;0.47;0.47;;;25.60;99.90;;;;;;5073759;28;20211;-64
2022/08/05 11:15:48;;;;;;;0.40;0.40;;;25.40;99.90;;;;;;5073452;28;20235;-64
2022/08/05 11:19:08;;;;;;;0.60;0.50;;;25.50;99.90;;;;;;5072779;28;20342;-64
2022/08/05 11:22:40;;;;;;;1.15;0.90;;;25.50;99.90;;;;;;5074181;28;20250;-64
2022/08/05 11:25:30;;;;;;;0.50;0.50;;;25.80;99.90;;;;;;5072784;28;20696;-65
2022/08/05 11:28:45;;;;;;;1.05;1.05;;;26.10;99.90;;;;;;5073531;28;20208;-63
2022/08/05 11:31:33;;;;;;;0.40;0.40;;;26.50;99.90;;;;;;5072599;28;20246;-66
2022/08/05 11:34:42;;;;;;;0.45;0.45;;;26.90;99.90;;;;;;5071546;28;20281;-65
2022/08/05 11:37:43;;;;;;;1.58;0.88;;;27.10;99.90;;;;;;5072220;28;20243;-66
2022/08/05 11:40:59;;;;;;;0.52;0.52;;;27.30;99.90;;;;;;5071228;28;20250;-65
2022/08/05 11:44:11;;;;;;;0.40;0.40;;;27.20;99.90;;;;;;5071485;28;20727;-65
2022/08/05 11:47:23;;;;;;;0.90;0.90;;;27.40;99.90;;;;;;5070773;28;20236;-65
2022/08/05 11:50:37;;;;;;;0.47;0.47;;;27.70;99.90;;;;;;5070762;28;20258;-65
2022/08/05 11:53:26;;;;;;;0.40;0.40;;;28.00;99.90;;;;;;5071258;28;20204;-65
2022/08/05 11:56:21;;;;;;;0.40;0.40;;;28.30;99.90;;;;;;5070706;28;20731;-63
2022/08/05 11:59:32;;;;;;;0.40;0.40;;;28.40;99.90;;;;;;5071423;28;20196;-65
2022/08/05 12:02:36;;;;;;;0.40;0.40;;;28.50;99.90;;;;;;5071889;28;20334;-63
2022/08/05 12:05:28;;;;;;;0.40;0.40;;;28.60;99.90;;;;;;5070438;28;20723;-63
2022/08/05 12:08:26;;;;;;;0.40;0.40;;;28.70;99.90;;;;;;5070731;28;20283;-63
2022/08/05 12:11:18;;;;;;;0.40;0.40;;;29.10;99.90;;;;;;5071684;28;20266;-63
2022/08/05 12:14:08;;;;;;;0.40;0.40;;;29.40;99.90;;;;;;5071453;28;20306;-63
2022/08/05 12:16:58;;;;;;;0.40;0.40;;;29.60;99.90;;;;;;5070958;28;20231;-63
2022/08/05 12:19:50;;;;;;;0.40;0.40;;;29.80;99.90;;;;;;5070912;28;20201;-63
2022/08/05 12:23:08;;;;;;;0.40;0.40;;;30.30;99.90;;;;;;5070765;28;20311;-63
2022/08/05 12:25:56;;;;;;;0.50;0.50;;;30.60;99.90;;;;;;5071076;28;20225;-63
2022/08/05 12:28:44;;;;;;;0.40;0.40;;;31.00;99.90;;;;;;5070903;28;20691;-64
2022/08/05 12:31:34;;;;;;;0.75;0.75;;;30.90;99.90;;;;;;5071361;28;20211;-64
2022/08/05 12:34:37;;;;;;;0.68;0.65;;;30.80;99.90;;;;;;5071430;28;20227;-64
2022/08/05 12:37:26;;;;;;;2.47;1.20;;;30.70;99.90;;;;;;5087973;28;20614;-63
2022/08/05 12:40:23;;;;;;;0.68;0.68;;;30.50;99.90;;;;;;5090888;28;20196;-64
2022/08/05 12:43:16;;;;;;;1.30;1.20;;;30.60;99.90;;;;;;5076371;28;20197;-64
2022/08/05 12:46:20;;;;;;;0.40;0.40;;;30.80;99.90;;;;;;5070921;28;20366;-63
2022/08/05 12:49:16;;;;;;;0.40;0.40;;;30.20;99.90;;;;;;5070644;28;20276;-63
2022/08/05 12:52:12;;;;;;;0.60;0.60;;;30.10;99.90;;;;;;5071281;28;20200;-64
2022/08/05 12:55:17;;;;;;;0.50;0.50;;;30.30;99.90;;;;;;5072179;28;20274;-64
2022/08/05 12:58:23;;;;;;;1.70;1.60;;;30.40;99.90;;;;;;5071784;28;20208;-63
2022/08/05 13:01:31;;;;;;;1.70;1.58;;;30.80;99.90;;;;;;5075389;28;20197;-63
2022/08/05 13:04:41;;;;;;;0.50;0.50;;;31.00;99.90;;;;;;5074198;28;20215;-64
2022/08/05 13:07:45;;;;;;;0.57;0.57;;;31.10;99.90;;;;;;5074481;28;20295;-64
2022/08/05 13:10:49;;;;;;;0.68;0.68;;;31.60;99.90;;;;;;5074405;28;20201;-64
2022/08/05 13:13:39;;;;;;;0.40;0.40;;;31.80;99.90;;;;;;5074591;28;20193;-63
2022/08/05 13:16:48;;;;;;;0.73;0.73;;;31.50;99.90;;;;;;5074599;28;20228;-63
2022/08/05 13:19:38;;;;;;;0.40;0.40;;;31.40;99.90;;;;;;5074357;28;20695;-63
2022/08/05 13:22:42;;;;;;;1.38;1.38;;;31.00;99.90;;;;;;5069512;28;20306;-63
2022/08/05 13:25:31;;;;;;;0.40;0.40;;;31.00;99.90;;;;;;5053885;28;20225;-63
2022/08/05 13:28:39;;;;;;;0.40;0.40;;;31.40;99.90;;;;;;5053738;28;20761;-63
2022/08/05 13:31:31;;;;;;;0.50;0.50;;;31.40;99.90;;;;;;5054204;28;20200;-64
2022/08/05 13:34:39;;;;;;;0.40;0.40;;;31.80;99.90;;;;;;5053847;28;20679;-64
2022/08/05 13:37:28;;;;;;;1.08;1.08;;;32.30;99.90;;;;;;5088241;28;20207;-64
2022/08/05 13:40:21;;;;;;;0.40;0.40;;;31.50;99.90;;;;;;5093614;28;20231;-64
2022/08/05 13:43:31;;;;;;;0.50;0.50;;;31.00;99.90;;;;;;5095017;28;20231;-64
2022/08/05 13:46:39;;;;;;;0.75;0.75;;;30.50;99.90;;;;;;5094334;28;20272;-64
2022/08/05 13:49:47;;;;;;;1.08;0.98;;;30.40;99.90;;;;;;5092959;28;20199;-65
2022/08/05 13:52:35;;;;;;;0.50;0.50;;;30.60;99.90;;;;;;5094630;28;20232;-64
2022/08/05 13:55:23;;;;;;;0.40;0.40;;;31.10;99.90;;;;;;5094073;28;20696;-64
2022/08/05 13:58:33;;;;;;;1.70;1.20;;;31.60;99.60;;;;;;5094168;28;20286;-64
2022/08/05 14:01:26;;;;;;;1.02;1.02;;;33.50;97.00;;;;;;5091805;28;20576;-64
2022/08/05 14:07:40;;;;;;;0.40;0.40;;;34.30;93.20;;;;;;5092721;28;20200;-63
2022/08/05 14:10:48;;;;;;;0.50;0.50;;;33.30;94.30;;;;;;5093046;28;20245;-64
2022/08/05 14:13:38;;;;;;;0.40;0.40;;;32.70;94.60;;;;;;5094453;28;20196;-63
2022/08/05 14:16:26;;;;;;;0.40;0.40;;;32.50;95.40;;;;;;5093681;28;20648;-63
2022/08/05 14:19:14;;;;;;;0.40;0.40;;;33.50;95.00;;;;;;5092917;28;20575;-64
2022/08/05 14:22:02;;;;;;;0.40;0.40;;;34.60;93.80;;;;;;5093690;28;20208;-63
2022/08/05 14:24:59;;;;;;;0.60;0.60;;;34.70;91.90;;;;;;5093397;28;20606;-64
2022/08/05 14:27:48;;;;;;;0.40;0.40;;;34.60;92.30;;;;;;5092866;28;20199;-63
2022/08/05 14:30:37;;;;;;;0.90;0.90;;;33.70;94.50;;;;;;5093141;28;20204;-64
2022/08/05 14:33:33;;;;;;;2.25;1.35;;;32.40;96.20;;;;;;5092816;28;20200;-63
2022/08/05 14:36:41;;;;;;;1.60;1.02;;;30.90;98.30;;;;;;5082457;28;20700;-63
2022/08/05 14:39:35;;;;;;;0.75;0.75;;;29.50;99.90;;;;;;5072513;28;20564;-64
2022/08/05 14:42:43;;;;;;;0.50;0.50;;;28.70;99.90;;;;;;5072518;28;20341;-65
2022/08/05 14:45:32;;;;;;;0.50;0.50;;;28.00;99.90;;;;;;5073114;28;20277;-64
2022/08/05 14:48:21;;;;;;;0.85;0.85;;;27.60;99.90;;;;;;5072821;28;20208;-64
2022/08/05 14:51:21;;;;;;;0.60;0.60;;;27.30;99.90;;;;;;5073942;28;20427;-64
2022/08/05 14:54:10;;;;;;;1.30;1.25;;;27.10;99.90;;;;;;5073284;28;20197;-64
2022/08/05 14:57:17;;;;;;;0.50;0.50;;;26.80;99.90;;;;;;5073054;28;20228;-64
2022/08/05 15:00:06;;;;;;;5.25;0.70;;;26.60;99.90;;;;;;5072994;28;20705;-64
2022/08/05 15:02:57;;;;;;;0.95;0.82;;;26.50;99.90;;;;;;5073960;28;20207;-67
2022/08/05 15:05:47;;;;;;;0.90;0.90;;;26.40;99.90;;;;;;5073988;28;20224;-64
2022/08/05 15:08:55;;;;;;;0.80;0.77;;;26.40;99.90;;;;;;5073897;28;20537;-64
2022/08/05 15:11:46;;;;;;;0.80;0.80;;;26.10;99.90;;;;;;5074119;28;20200;-64
2022/08/05 15:14:40;;;;;;;0.60;0.60;;;26.10;99.90;;;;;;5074127;28;20204;-64
2022/08/05 15:17:37;;;;;;;0.70;0.70;;;25.90;99.90;;;;;;5073233;28;20199;-63
2022/08/05 15:20:34;;;;;;;1.05;0.95;;;25.70;99.90;;;;;;5071833;28;20197;-63
2022/08/05 15:23:24;;;;;;;0.40;0.40;;;25.80;99.90;;;;;;5073139;28;20630;-64
2022/08/05 15:26:14;;;;;;;2.70;1.77;;;25.60;99.90;;;;;;5073527;28;20655;-63
2022/08/05 15:29:02;;;;;;;0.40;0.40;;;25.60;99.90;;;;;;5073017;28;20197;-63